Time;durP1;ratioP1;P1;durP2;ratioP2;P2;SDS_P1;SDS_P2;PMS_P1;PMS_P2;Temp;Humidity;BMP_temperature;BMP_pressure;BME280_temperature;BME280_humidity;BME280_pressure;Samples;Min_cycle;Max_cycle;Signal;HPM_P1;HPM_P2
2021/07/06 08:11:38;;;;;;;15.55;2.83;;;19.10;99.90;;;;;;11993676;27;20457;-60
2021/07/06 08:17:28;;;;;;;17.17;3.55;;;19.30;99.90;;;;;;11958887;27;20048;-59
2021/07/06 08:23:15;;;;;;;18.65;2.70;;;20.10;99.90;;;;;;11942600;28;20136;-59
2021/07/06 08:29:03;;;;;;;19.48;2.65;;;20.40;99.90;;;;;;11975109;27;20041;-60
2021/07/06 08:34:50;;;;;;;15.40;2.80;;;20.30;99.90;;;;;;11949659;28;20057;-60
2021/07/06 08:40:37;;;;;;;14.68;2.67;;;20.20;99.90;;;;;;11984754;27;20049;-61
2021/07/06 08:46:26;;;;;;;13.98;2.63;;;20.70;99.90;;;;;;11985797;27;20053;-60
2021/07/06 08:52:15;;;;;;;20.90;3.03;;;20.90;99.90;;;;;;11988387;27;20049;-60
2021/07/06 08:58:03;;;;;;;16.58;3.40;;;21.10;99.90;;;;;;11987308;27;20049;-60
2021/07/06 09:03:55;;;;;;;16.95;2.75;;;20.90;99.90;;;;;;11980037;28;20433;-60
2021/07/06 09:09:42;;;;;;;11.45;2.88;;;20.90;99.90;;;;;;11995933;28;20049;-60
2021/07/06 09:15:32;;;;;;;17.10;2.50;;;21.10;99.90;;;;;;12006125;28;20051;-60
2021/07/06 09:21:23;;;;;;;15.88;2.70;;;21.40;99.90;;;;;;11989363;28;20528;-60
2021/07/06 09:27:27;;;;;;;10.88;2.75;;;21.20;99.90;;;;;;11973317;28;20046;-59
2021/07/06 09:33:26;;;;;;;17.58;2.30;;;21.10;99.90;;;;;;11973197;28;20049;-60
2021/07/06 09:39:20;;;;;;;10.90;2.05;;;21.40;99.90;;;;;;11959439;28;20053;-60
2021/07/06 09:45:08;;;;;;;12.55;1.75;;;21.70;99.90;;;;;;11962013;28;20403;-60
2021/07/06 09:51:11;;;;;;;8.63;1.50;;;21.50;99.80;;;;;;11972806;28;20045;-60
2021/07/06 09:57:14;;;;;;;7.97;1.33;;;21.50;96.80;;;;;;11960847;28;20061;-60
2021/07/06 10:03:02;;;;;;;10.38;1.70;;;21.80;97.20;;;;;;11970092;28;20042;-60
2021/07/06 10:08:57;;;;;;;12.48;1.83;;;22.00;96.40;;;;;;11904879;28;20133;-60
2021/07/06 10:14:46;;;;;;;9.60;1.77;;;21.90;95.40;;;;;;11928711;28;20053;-62
2021/07/06 10:20:35;;;;;;;8.75;1.63;;;22.10;95.00;;;;;;11936640;28;20418;-59
2021/07/06 10:26:26;;;;;;;9.77;1.30;;;22.00;95.30;;;;;;11958121;28;20042;-59
2021/07/06 10:32:39;;;;;;;6.53;1.63;;;22.30;93.40;;;;;;11969507;28;20440;-59
2021/07/06 10:38:43;;;;;;;8.10;1.57;;;22.50;92.70;;;;;;11968843;28;20444;-60
2021/07/06 10:44:34;;;;;;;15.20;1.92;;;22.10;93.20;;;;;;11969668;28;20038;-61
2021/07/06 10:50:46;;;;;;;12.32;1.77;;;22.00;93.50;;;;;;11945491;28;20417;-60
2021/07/06 10:56:36;;;;;;;6.97;1.52;;;22.20;93.40;;;;;;11969055;28;20498;-60
2021/07/06 11:02:24;;;;;;;8.75;1.58;;;21.90;92.90;;;;;;11969006;28;20409;-60
2021/07/06 11:08:42;;;;;;;10.43;1.33;;;22.10;93.20;;;;;;11948230;28;20041;-60
2021/07/06 11:14:29;;;;;;;7.55;1.20;;;22.20;91.90;;;;;;11956248;28;20565;-60
2021/07/06 11:20:18;;;;;;;9.35;1.58;;;22.30;93.10;;;;;;11948699;28;20061;-59
2021/07/06 11:26:10;;;;;;;8.98;1.48;;;22.80;91.70;;;;;;11951052;28;20115;-61
2021/07/06 11:32:14;;;;;;;12.10;1.35;;;23.30;90.40;;;;;;11953558;28;20087;-60
2021/07/06 11:38:03;;;;;;;8.20;1.80;;;23.30;90.50;;;;;;11913260;28;20063;-61
2021/07/06 11:43:52;;;;;;;8.23;1.70;;;23.20;91.10;;;;;;11947276;28;20528;-61
2021/07/06 11:49:39;;;;;;;8.63;1.38;;;22.90;90.30;;;;;;11949721;28;20054;-60
2021/07/06 11:55:26;;;;;;;7.47;1.48;;;23.10;89.10;;;;;;11923374;28;20555;-60
2021/07/06 12:01:14;;;;;;;8.27;1.30;;;23.10;87.50;;;;;;11939863;28;20060;-60
2021/07/06 12:07:06;;;;;;;10.18;1.60;;;23.00;85.70;;;;;;11948750;28;20532;-61
2021/07/06 12:13:05;;;;;;;11.13;1.50;;;23.00;86.90;;;;;;11945135;28;20410;-61
2021/07/06 12:18:54;;;;;;;5.32;1.50;;;23.30;84.70;;;;;;11949413;28;20076;-61
2021/07/06 12:24:42;;;;;;;7.07;1.63;;;23.10;84.00;;;;;;11921243;28;20054;-59
2021/07/06 12:30:28;;;;;;;6.65;1.58;;;23.30;82.80;;;;;;11926133;28;20488;-59
2021/07/06 12:36:28;;;;;;;8.82;1.30;;;23.20;84.20;;;;;;11905500;28;20041;-60
2021/07/06 12:42:19;;;;;;;9.85;1.58;;;22.90;84.20;;;;;;11946380;28;20621;-59
2021/07/06 12:48:06;;;;;;;8.77;1.40;;;23.40;81.60;;;;;;11928067;28;20060;-59
2021/07/06 12:53:59;;;;;;;7.88;1.42;;;23.80;79.40;;;;;;11952267;28;20051;-60
2021/07/06 12:59:46;;;;;;;10.27;1.52;;;23.90;79.20;;;;;;11921917;28;20057;-59
2021/07/06 13:05:37;;;;;;;9.05;1.65;;;23.80;78.20;;;;;;11960375;28;20045;-60
2021/07/06 13:11:29;;;;;;;9.30;1.33;;;23.80;79.00;;;;;;11952250;28;20041;-60
2021/07/06 13:17:22;;;;;;;4.75;1.50;;;23.60;76.20;;;;;;11955223;28;20056;-60
2021/07/06 13:23:09;;;;;;;;;;;23.60;76.30;;;;;;11953163;28;20064;-61
2021/07/06 13:28:59;;;;;;;13.98;1.58;;;23.80;76.10;;;;;;11952781;28;19928;-61
2021/07/06 13:34:46;;;;;;;5.10;1.35;;;24.30;74.80;;;;;;11960178;28;20045;-61
2021/07/06 13:40:33;;;;;;;8.98;1.40;;;24.20;71.80;;;;;;11957008;28;20064;-61
2021/07/06 13:46:22;;;;;;;5.70;1.30;;;24.20;71.10;;;;;;11921299;28;21312;-61
2021/07/06 13:52:09;;;;;;;8.90;1.65;;;24.30;71.60;;;;;;11954709;28;20056;-61
2021/07/06 13:57:56;;;;;;;9.68;1.58;;;24.30;72.40;;;;;;11921630;28;20054;-60
2021/07/06 14:03:44;;;;;;;9.38;1.13;;;23.70;70.20;;;;;;11952211;28;20627;-61
2021/07/06 14:09:32;;;;;;;8.82;1.65;;;23.60;71.10;;;;;;11917933;28;20049;-61
2021/07/06 14:15:19;;;;;;;4.80;1.30;;;23.90;71.70;;;;;;11950286;28;20060;-62
2021/07/06 14:21:07;;;;;;;8.15;1.48;;;24.20;71.20;;;;;;11951999;28;20096;-62
2021/07/06 14:26:54;;;;;;;7.18;1.40;;;24.50;68.40;;;;;;11953815;28;20531;-61
2021/07/06 14:32:41;;;;;;;2.50;0.80;;;24.40;68.00;;;;;;11943614;28;21278;-61
2021/07/06 14:38:29;;;;;;;5.82;1.63;;;24.50;65.20;;;;;;11933893;28;20413;-61
2021/07/06 14:44:17;;;;;;;4.78;1.17;;;24.90;64.10;;;;;;11941685;28;20057;-61
2021/07/06 14:50:15;;;;;;;5.22;1.20;;;24.70;63.70;;;;;;11939434;28;20149;-62
2021/07/06 14:56:05;;;;;;;5.05;1.20;;;24.90;62.40;;;;;;11932210;28;20528;-62
2021/07/06 15:01:52;;;;;;;7.60;1.35;;;25.20;62.40;;;;;;11948252;28;20060;-62
2021/07/06 15:07:39;;;;;;;3.80;1.13;;;25.70;62.60;;;;;;11946890;28;20057;-62
2021/07/06 15:13:27;;;;;;;8.15;1.30;;;25.80;60.20;;;;;;11948962;28;20041;-61
2021/07/06 15:19:14;;;;;;;8.23;1.58;;;25.50;60.20;;;;;;11946401;28;20688;-61
2021/07/06 15:25:01;;;;;;;6.15;1.30;;;25.20;61.70;;;;;;11954298;28;20049;-60
2021/07/06 15:30:49;;;;;;;8.68;1.45;;;25.40;61.00;;;;;;11952118;28;20055;-61
2021/07/06 15:36:36;;;;;;;8.70;1.42;;;26.00;62.20;;;;;;11944974;28;20073;-62
2021/07/06 15:42:23;;;;;;;8.82;1.50;;;26.80;60.90;;;;;;11945610;28;20049;-63
2021/07/06 15:48:14;;;;;;;7.65;1.50;;;27.00;58.00;;;;;;11948280;28;20053;-62
2021/07/06 15:54:01;;;;;;;6.50;1.52;;;28.60;56.70;;;;;;11949702;28;21391;-62
2021/07/06 15:59:48;;;;;;;5.30;1.55;;;29.30;54.20;;;;;;11941637;28;20703;-61
2021/07/06 16:05:36;;;;;;;4.95;1.40;;;28.30;56.90;;;;;;11934984;28;21424;-61
2021/07/06 16:11:23;;;;;;;3.53;1.27;;;27.70;56.10;;;;;;11952146;28;20056;-60
2021/07/06 16:17:10;;;;;;;5.05;1.40;;;27.60;56.20;;;;;;11945921;28;20725;-59
2021/07/06 16:22:58;;;;;;;4.30;1.23;;;27.70;57.50;;;;;;11945403;28;20049;-61
2021/07/06 16:28:45;;;;;;;6.65;1.38;;;29.30;53.80;;;;;;11914271;28;20426;-60
2021/07/06 16:34:32;;;;;;;6.68;1.20;;;30.50;51.60;;;;;;11958643;28;20053;-59
2021/07/06 16:40:22;;;;;;;3.10;1.10;;;30.80;50.80;;;;;;11955521;28;20050;-59
2021/07/06 16:46:09;;;;;;;6.78;1.55;;;29.80;50.30;;;;;;11936440;28;20083;-61
2021/07/06 18:05:12;;;;;;;5.95;1.67;;;30.80;51.60;;;;;;11907302;28;20114;-59
2021/07/06 18:11:01;;;;;;;5.82;1.65;;;34.00;48.00;;;;;;11943220;28;20445;-60
2021/07/06 18:16:48;;;;;;;8.57;1.88;;;35.00;44.90;;;;;;11948229;28;20053;-60
2021/07/06 18:22:35;;;;;;;8.95;2.15;;;32.10;48.50;;;;;;11954757;28;20084;-59
2021/07/06 18:28:24;;;;;;;6.68;1.50;;;29.70;52.20;;;;;;11945328;28;20811;-59
2021/07/06 18:34:10;;;;;;;9.60;2.15;;;28.10;55.20;;;;;;11953468;28;20049;-59
2021/07/06 18:39:57;;;;;;;6.72;1.83;;;27.10;59.40;;;;;;11947427;28;20045;-58
2021/07/06 18:45:46;;;;;;;6.40;1.88;;;26.40;61.90;;;;;;11927978;28;20536;-59
2021/07/06 18:51:33;;;;;;;8.90;2.35;;;26.00;62.50;;;;;;11939569;28;20064;-59
2021/07/06 18:57:20;;;;;;;7.47;1.65;;;25.70;63.40;;;;;;11951436;28;20056;-59
2021/07/06 19:03:09;;;;;;;5.82;1.60;;;25.50;62.60;;;;;;11960188;28;20060;-59
2021/07/06 19:08:56;;;;;;;5.93;1.52;;;25.30;64.20;;;;;;11942399;28;20056;-59
2021/07/06 19:14:43;;;;;;;6.25;1.60;;;25.20;64.90;;;;;;11945809;28;20072;-59
2021/07/06 19:20:32;;;;;;;7.70;1.98;;;25.00;64.50;;;;;;11958680;28;20049;-60
2021/07/06 19:26:34;;;;;;;6.43;1.88;;;25.00;65.80;;;;;;11964947;28;20413;-60
2021/07/06 19:32:22;;;;;;;20.35;2.20;;;24.80;67.30;;;;;;11910551;28;20573;-60
2021/07/06 19:38:10;;;;;;;8.80;2.20;;;24.70;66.60;;;;;;11944237;28;20175;-60
2021/07/06 19:43:57;;;;;;;9.07;1.70;;;24.70;68.40;;;;;;11950232;28;20061;-59
2021/07/06 19:49:44;;;;;;;7.72;2.00;;;24.70;66.90;;;;;;11954976;28;20471;-60
2021/07/06 19:55:32;;;;;;;10.85;2.05;;;24.60;69.50;;;;;;11944838;28;20053;-59
2021/07/06 20:01:20;;;;;;;10.40;2.05;;;24.50;73.40;;;;;;11944738;28;20481;-57
2021/07/06 20:07:07;;;;;;;5.00;2.03;;;24.30;74.20;;;;;;11943167;28;20143;-59
2021/07/06 20:12:55;;;;;;;8.88;1.90;;;24.30;74.40;;;;;;11945829;28;20441;-58
2021/07/06 20:18:42;;;;;;;6.40;1.95;;;24.10;75.40;;;;;;11926945;28;20045;-65
2021/07/06 20:24:29;;;;;;;5.20;2.08;;;24.00;76.50;;;;;;11930863;28;20049;-60
2021/07/06 20:30:18;;;;;;;10.73;2.33;;;23.80;78.10;;;;;;11946425;28;20049;-60
2021/07/06 20:36:05;;;;;;;9.00;2.13;;;23.60;78.30;;;;;;11944388;28;20533;-59
2021/07/06 20:41:53;;;;;;;6.30;2.00;;;23.50;78.90;;;;;;11938798;28;20057;-57
2021/07/06 20:47:41;;;;;;;5.72;1.92;;;23.30;78.90;;;;;;11946974;28;20041;-60
2021/07/06 20:53:29;;;;;;;6.68;1.75;;;23.10;79.10;;;;;;11957021;28;20414;-60
2021/07/06 20:59:16;;;;;;;12.48;2.42;;;23.10;80.70;;;;;;11944970;28;20080;-60
2021/07/06 21:05:20;;;;;;;8.35;2.40;;;23.00;80.40;;;;;;11942850;28;20061;-60
2021/07/06 21:11:07;;;;;;;10.95;2.53;;;22.80;81.00;;;;;;11953362;28;20045;-60
2021/07/06 21:16:54;;;;;;;7.95;3.03;;;22.90;80.30;;;;;;11948563;28;20076;-66
2021/07/06 21:22:42;;;;;;;8.77;2.35;;;22.80;81.50;;;;;;11939619;28;20482;-65
2021/07/06 21:28:29;;;;;;;6.68;3.03;;;22.80;81.00;;;;;;11992788;28;20045;-65
2021/07/06 21:34:16;;;;;;;13.77;2.92;;;22.80;81.90;;;;;;11955574;28;20057;-66
2021/07/06 21:40:06;;;;;;;9.23;2.30;;;22.80;81.30;;;;;;11951314;28;20053;-65
2021/07/06 21:45:53;;;;;;;5.45;2.28;;;22.70;80.70;;;;;;11964380;28;20046;-65
2021/07/06 21:51:40;;;;;;;8.52;2.40;;;22.70;81.90;;;;;;11935825;28;20480;-65
2021/07/06 21:57:31;;;;;;;6.88;2.25;;;22.70;82.00;;;;;;11916846;28;20094;-65
2021/07/06 22:03:18;;;;;;;9.40;2.30;;;22.50;81.70;;;;;;11980256;28;20044;-64
2021/07/06 22:09:05;;;;;;;11.05;2.50;;;22.40;81.60;;;;;;11945526;28;20103;-66
2021/07/06 22:14:55;;;;;;;11.45;2.33;;;22.30;82.40;;;;;;11948433;28;20052;-64
2021/07/06 22:20:42;;;;;;;8.13;2.10;;;22.20;82.40;;;;;;11944724;28;20533;-65
2021/07/06 22:26:29;;;;;;;9.40;2.00;;;22.20;82.50;;;;;;11910408;28;20053;-64
2021/07/06 22:32:19;;;;;;;8.70;1.83;;;22.10;83.00;;;;;;11953599;28;20056;-66
2021/07/06 22:38:05;;;;;;;6.20;2.00;;;22.10;83.40;;;;;;11961086;28;20180;-65
2021/07/06 22:43:52;;;;;;;4.78;2.30;;;22.00;83.60;;;;;;11950166;28;20048;-65
2021/07/06 22:49:41;;;;;;;6.72;2.05;;;21.80;83.80;;;;;;11954504;28;20050;-64
2021/07/06 22:55:28;;;;;;;6.70;2.17;;;21.80;84.30;;;;;;11948945;28;20041;-64
2021/07/06 23:01:14;;;;;;;7.97;2.25;;;21.70;84.50;;;;;;11952007;28;20075;-65
2021/07/06 23:07:03;;;;;;;7.47;2.08;;;21.60;84.80;;;;;;11955000;28;20057;-65
2021/07/06 23:12:50;;;;;;;10.80;2.65;;;21.60;85.30;;;;;;11943451;28;20053;-64
2021/07/06 23:18:37;;;;;;;7.63;2.30;;;21.60;85.50;;;;;;11907507;28;20065;-64
2021/07/06 23:24:25;;;;;;;9.20;2.38;;;21.50;85.60;;;;;;11951228;28;20096;-64
2021/07/06 23:30:13;;;;;;;7.65;2.50;;;21.60;86.10;;;;;;11947885;28;20045;-65
2021/07/06 23:35:59;;;;;;;9.48;2.08;;;21.50;85.70;;;;;;11940905;28;20049;-65
2021/07/06 23:41:48;;;;;;;11.00;2.15;;;21.40;86.10;;;;;;11915320;28;20061;-65
2021/07/06 23:47:35;;;;;;;8.77;2.08;;;21.30;86.20;;;;;;11924919;28;20044;-64
